sensor_id;sensor_type;location;lat;lon;timestamp;P1;durP1;ratioP1;P2;durP2;ratioP2
46781;SDS011;32541;46.298;11.506;2022-10-16T00:01:15;40.13;;;24.35;;
46781;SDS011;32541;46.298;11.506;2022-10-16T00:03:42;37.10;;;21.02;;
46781;SDS011;32541;46.298;11.506;2022-10-16T00:06:09;34.97;;;20.05;;
46781;SDS011;32541;46.298;11.506;2022-10-16T00:08:36;32.08;;;18.55;;
46781;SDS011;32541;46.298;11.506;2022-10-16T00:11:03;29.75;;;17.33;;
46781;SDS011;32541;46.298;11.506;2022-10-16T00:13:31;29.55;;;16.35;;
46781;SDS011;32541;46.298;11.506;2022-10-16T00:15:59;24.52;;;15.13;;
46781;SDS011;32541;46.298;11.506;2022-10-16T00:18:25;26.40;;;15.07;;
46781;SDS011;32541;46.298;11.506;2022-10-16T00:20:51;20.30;;;13.95;;
46781;SDS011;32541;46.298;11.506;2022-10-16T00:23:17;28.40;;;16.15;;
46781;SDS011;32541;46.298;11.506;2022-10-16T00:25:43;33.83;;;20.55;;
46781;SDS011;32541;46.298;11.506;2022-10-16T00:28:08;24.92;;;16.05;;
46781;SDS011;32541;46.298;11.506;2022-10-16T00:30:33;46.42;;;27.52;;
46781;SDS011;32541;46.298;11.506;2022-10-16T00:33:02;45.30;;;27.48;;
46781;SDS011;32541;46.298;11.506;2022-10-16T00:35:27;41.33;;;24.63;;
46781;SDS011;32541;46.298;11.506;2022-10-16T00:37:54;56.13;;;30.88;;
46781;SDS011;32541;46.298;11.506;2022-10-16T00:40:19;48.25;;;28.95;;
46781;SDS011;32541;46.298;11.506;2022-10-16T00:42:44;48.85;;;28.00;;
46781;SDS011;32541;46.298;11.506;2022-10-16T00:45:10;45.72;;;26.77;;
46781;SDS011;32541;46.298;11.506;2022-10-16T00:50:26;43.65;;;24.92;;
46781;SDS011;32541;46.298;11.506;2022-10-16T00:52:56;37.15;;;21.85;;
46781;SDS011;32541;46.298;11.506;2022-10-16T00:55:23;36.03;;;22.60;;
46781;SDS011;32541;46.298;11.506;2022-10-16T00:57:49;42.70;;;23.88;;
46781;SDS011;32541;46.298;11.506;2022-10-16T01:00:17;44.53;;;23.08;;
46781;SDS011;32541;46.298;11.506;2022-10-16T01:02:51;39.83;;;22.27;;
46781;SDS011;32541;46.298;11.506;2022-10-16T01:05:33;40.67;;;24.90;;
46781;SDS011;32541;46.298;11.506;2022-10-16T01:08:12;36.88;;;23.40;;
46781;SDS011;32541;46.298;11.506;2022-10-16T01:10:47;34.95;;;21.25;;
46781;SDS011;32541;46.298;11.506;2022-10-16T01:13:24;34.78;;;19.88;;
46781;SDS011;32541;46.298;11.506;2022-10-16T01:16:06;26.83;;;17.00;;
46781;SDS011;32541;46.298;11.506;2022-10-16T01:21:40;34.78;;;20.42;;
46781;SDS011;32541;46.298;11.506;2022-10-16T01:29:29;33.50;;;20.17;;
46781;SDS011;32541;46.298;11.506;2022-10-16T01:32:04;30.77;;;18.80;;
46781;SDS011;32541;46.298;11.506;2022-10-16T01:34:50;28.90;;;17.25;;
46781;SDS011;32541;46.298;11.506;2022-10-16T01:37:40;28.20;;;18.13;;
46781;SDS011;32541;46.298;11.506;2022-10-16T01:40:19;33.00;;;18.90;;
46781;SDS011;32541;46.298;11.506;2022-10-16T01:43:22;34.72;;;21.73;;
46781;SDS011;32541;46.298;11.506;2022-10-16T01:45:46;35.28;;;20.75;;
46781;SDS011;32541;46.298;11.506;2022-10-16T01:48:13;39.90;;;21.38;;
46781;SDS011;32541;46.298;11.506;2022-10-16T01:50:42;34.78;;;20.70;;
46781;SDS011;32541;46.298;11.506;2022-10-16T01:53:12;34.83;;;20.75;;
46781;SDS011;32541;46.298;11.506;2022-10-16T01:55:41;30.75;;;19.08;;
46781;SDS011;32541;46.298;11.506;2022-10-16T01:58:10;27.80;;;18.23;;
46781;SDS011;32541;46.298;11.506;2022-10-16T02:00:37;37.90;;;20.83;;
46781;SDS011;32541;46.298;11.506;2022-10-16T02:03:06;36.72;;;20.83;;
46781;SDS011;32541;46.298;11.506;2022-10-16T02:08:12;35.72;;;22.27;;
46781;SDS011;32541;46.298;11.506;2022-10-16T02:10:37;33.47;;;19.70;;
46781;SDS011;32541;46.298;11.506;2022-10-16T02:13:06;29.85;;;18.83;;
46781;SDS011;32541;46.298;11.506;2022-10-16T02:15:35;34.20;;;20.60;;
46781;SDS011;32541;46.298;11.506;2022-10-16T02:18:01;30.45;;;19.02;;
46781;SDS011;32541;46.298;11.506;2022-10-16T02:21:15;32.33;;;19.08;;
46781;SDS011;32541;46.298;11.506;2022-10-16T02:23:35;30.75;;;17.15;;
46781;SDS011;32541;46.298;11.506;2022-10-16T02:26:12;34.38;;;20.00;;
46781;SDS011;32541;46.298;11.506;2022-10-16T02:28:46;33.08;;;20.15;;
46781;SDS011;32541;46.298;11.506;2022-10-16T02:31:18;35.25;;;20.58;;
46781;SDS011;32541;46.298;11.506;2022-10-16T02:33:52;29.90;;;18.48;;
46781;SDS011;32541;46.298;11.506;2022-10-16T02:36:19;28.58;;;16.95;;
46781;SDS011;32541;46.298;11.506;2022-10-16T02:38:46;27.63;;;16.60;;
46781;SDS011;32541;46.298;11.506;2022-10-16T02:41:12;28.50;;;16.98;;
46781;SDS011;32541;46.298;11.506;2022-10-16T02:43:37;30.70;;;18.13;;
46781;SDS011;32541;46.298;11.506;2022-10-16T02:46:03;32.05;;;17.73;;
46781;SDS011;32541;46.298;11.506;2022-10-16T02:48:28;30.45;;;17.80;;
46781;SDS011;32541;46.298;11.506;2022-10-16T02:50:53;30.73;;;17.70;;
46781;SDS011;32541;46.298;11.506;2022-10-16T02:53:19;24.73;;;14.82;;
46781;SDS011;32541;46.298;11.506;2022-10-16T02:55:44;24.27;;;14.57;;
46781;SDS011;32541;46.298;11.506;2022-10-16T02:58:09;26.67;;;16.08;;
46781;SDS011;32541;46.298;11.506;2022-10-16T03:00:35;32.55;;;19.13;;
46781;SDS011;32541;46.298;11.506;2022-10-16T03:03:00;28.90;;;17.90;;
46781;SDS011;32541;46.298;11.506;2022-10-16T03:05:26;25.65;;;14.32;;
46781;SDS011;32541;46.298;11.506;2022-10-16T03:07:51;22.75;;;11.50;;
46781;SDS011;32541;46.298;11.506;2022-10-16T03:10:18;19.92;;;11.90;;
46781;SDS011;32541;46.298;11.506;2022-10-16T03:12:43;21.45;;;12.55;;
46781;SDS011;32541;46.298;11.506;2022-10-16T03:15:09;18.98;;;12.38;;
46781;SDS011;32541;46.298;11.506;2022-10-16T03:17:34;15.25;;;9.85;;
46781;SDS011;32541;46.298;11.506;2022-10-16T03:20:00;15.63;;;10.13;;
46781;SDS011;32541;46.298;11.506;2022-10-16T03:22:25;14.25;;;9.05;;
46781;SDS011;32541;46.298;11.506;2022-10-16T03:24:51;13.98;;;8.43;;
46781;SDS011;32541;46.298;11.506;2022-10-16T03:27:16;12.27;;;7.82;;
46781;SDS011;32541;46.298;11.506;2022-10-16T03:29:42;11.90;;;7.70;;
46781;SDS011;32541;46.298;11.506;2022-10-16T03:32:07;10.10;;;6.32;;
46781;SDS011;32541;46.298;11.506;2022-10-16T03:34:33;14.10;;;7.93;;
46781;SDS011;32541;46.298;11.506;2022-10-16T03:36:58;17.38;;;10.90;;
46781;SDS011;32541;46.298;11.506;2022-10-16T03:39:24;15.77;;;9.15;;
46781;SDS011;32541;46.298;11.506;2022-10-16T03:41:49;19.15;;;10.55;;
46781;SDS011;32541;46.298;11.506;2022-10-16T03:44:14;16.25;;;10.07;;
46781;SDS011;32541;46.298;11.506;2022-10-16T03:46:40;16.35;;;9.10;;
46781;SDS011;32541;46.298;11.506;2022-10-16T03:49:05;16.02;;;9.63;;
46781;SDS011;32541;46.298;11.506;2022-10-16T03:51:31;16.52;;;9.85;;
46781;SDS011;32541;46.298;11.506;2022-10-16T03:53:56;19.23;;;12.68;;
46781;SDS011;32541;46.298;11.506;2022-10-16T03:56:21;18.52;;;12.48;;
46781;SDS011;32541;46.298;11.506;2022-10-16T03:58:47;15.85;;;9.07;;
46781;SDS011;32541;46.298;11.506;2022-10-16T04:01:12;13.68;;;7.72;;
46781;SDS011;32541;46.298;11.506;2022-10-16T04:03:38;10.70;;;6.13;;
46781;SDS011;32541;46.298;11.506;2022-10-16T04:06:03;11.32;;;7.38;;
46781;SDS011;32541;46.298;11.506;2022-10-16T04:08:28;11.07;;;6.93;;
46781;SDS011;32541;46.298;11.506;2022-10-16T04:10:54;11.35;;;6.97;;
46781;SDS011;32541;46.298;11.506;2022-10-16T04:13:19;13.77;;;6.93;;
46781;SDS011;32541;46.298;11.506;2022-10-16T04:15:45;13.95;;;7.70;;
46781;SDS011;32541;46.298;11.506;2022-10-16T04:18:10;11.95;;;7.55;;
46781;SDS011;32541;46.298;11.506;2022-10-16T04:20:36;15.32;;;7.30;;
46781;SDS011;32541;46.298;11.506;2022-10-16T04:23:01;12.93;;;7.57;;
46781;SDS011;32541;46.298;11.506;2022-10-16T04:25:27;15.50;;;7.90;;
46781;SDS011;32541;46.298;11.506;2022-10-16T04:27:53;15.07;;;8.90;;
46781;SDS011;32541;46.298;11.506;2022-10-16T04:30:19;14.68;;;8.13;;
46781;SDS011;32541;46.298;11.506;2022-10-16T04:32:47;16.33;;;7.03;;
46781;SDS011;32541;46.298;11.506;2022-10-16T04:35:14;12.25;;;6.60;;
46781;SDS011;32541;46.298;11.506;2022-10-16T04:37:40;10.15;;;6.22;;
46781;SDS011;32541;46.298;11.506;2022-10-16T04:40:05;10.98;;;6.80;;
46781;SDS011;32541;46.298;11.506;2022-10-16T04:42:31;9.95;;;7.20;;
46781;SDS011;32541;46.298;11.506;2022-10-16T04:44:56;14.23;;;7.55;;
46781;SDS011;32541;46.298;11.506;2022-10-16T04:47:21;11.23;;;7.15;;
46781;SDS011;32541;46.298;11.506;2022-10-16T04:49:47;13.93;;;7.75;;
46781;SDS011;32541;46.298;11.506;2022-10-16T04:52:12;12.23;;;7.70;;
46781;SDS011;32541;46.298;11.506;2022-10-16T04:54:37;13.85;;;8.52;;
46781;SDS011;32541;46.298;11.506;2022-10-16T04:57:03;11.02;;;6.80;;
46781;SDS011;32541;46.298;11.506;2022-10-16T04:59:30;11.15;;;7.85;;
46781;SDS011;32541;46.298;11.506;2022-10-16T05:01:55;12.10;;;7.15;;
46781;SDS011;32541;46.298;11.506;2022-10-16T05:04:20;12.45;;;7.53;;
46781;SDS011;32541;46.298;11.506;2022-10-16T05:06:47;12.85;;;7.68;;
46781;SDS011;32541;46.298;11.506;2022-10-16T05:09:12;12.77;;;7.95;;
46781;SDS011;32541;46.298;11.506;2022-10-16T05:11:38;11.68;;;7.20;;
46781;SDS011;32541;46.298;11.506;2022-10-16T05:14:03;10.82;;;7.25;;
46781;SDS011;32541;46.298;11.506;2022-10-16T05:16:29;10.02;;;6.78;;
46781;SDS011;32541;46.298;11.506;2022-10-16T05:18:55;13.13;;;6.95;;
46781;SDS011;32541;46.298;11.506;2022-10-16T05:21:21;12.23;;;6.40;;
46781;SDS011;32541;46.298;11.506;2022-10-16T05:23:46;12.88;;;6.32;;
46781;SDS011;32541;46.298;11.506;2022-10-16T05:26:12;11.82;;;6.65;;
46781;SDS011;32541;46.298;11.506;2022-10-16T05:28:37;12.25;;;6.65;;
46781;SDS011;32541;46.298;11.506;2022-10-16T05:31:06;10.75;;;6.57;;
46781;SDS011;32541;46.298;11.506;2022-10-16T05:33:33;11.80;;;6.70;;
46781;SDS011;32541;46.298;11.506;2022-10-16T05:36:06;13.02;;;7.18;;
46781;SDS011;32541;46.298;11.506;2022-10-16T05:38:33;12.82;;;7.68;;
46781;SDS011;32541;46.298;11.506;2022-10-16T05:40:59;10.70;;;6.88;;
46781;SDS011;32541;46.298;11.506;2022-10-16T05:43:26;13.57;;;7.05;;
46781;SDS011;32541;46.298;11.506;2022-10-16T05:46:03;10.65;;;6.53;;
46781;SDS011;32541;46.298;11.506;2022-10-16T05:48:30;11.98;;;7.25;;
46781;SDS011;32541;46.298;11.506;2022-10-16T05:53:25;12.98;;;6.00;;
46781;SDS011;32541;46.298;11.506;2022-10-16T05:55:52;10.70;;;5.95;;
46781;SDS011;32541;46.298;11.506;2022-10-16T05:58:18;11.65;;;6.53;;
46781;SDS011;32541;46.298;11.506;2022-10-16T06:00:44;10.70;;;5.97;;
46781;SDS011;32541;46.298;11.506;2022-10-16T06:03:09;10.23;;;6.15;;
46781;SDS011;32541;46.298;11.506;2022-10-16T06:05:34;12.40;;;7.03;;
46781;SDS011;32541;46.298;11.506;2022-10-16T06:08:00;13.90;;;8.18;;
46781;SDS011;32541;46.298;11.506;2022-10-16T06:10:25;11.63;;;7.28;;
46781;SDS011;32541;46.298;11.506;2022-10-16T06:12:50;10.70;;;6.05;;
46781;SDS011;32541;46.298;11.506;2022-10-16T06:15:16;12.15;;;6.30;;
46781;SDS011;32541;46.298;11.506;2022-10-16T06:17:41;11.80;;;7.53;;
46781;SDS011;32541;46.298;11.506;2022-10-16T06:20:07;12.57;;;7.00;;
46781;SDS011;32541;46.298;11.506;2022-10-16T06:22:32;12.50;;;7.15;;
46781;SDS011;32541;46.298;11.506;2022-10-16T06:24:58;17.35;;;7.90;;
46781;SDS011;32541;46.298;11.506;2022-10-16T06:27:23;12.40;;;7.03;;
46781;SDS011;32541;46.298;11.506;2022-10-16T06:29:48;13.90;;;7.05;;
46781;SDS011;32541;46.298;11.506;2022-10-16T06:32:14;11.27;;;7.25;;
46781;SDS011;32541;46.298;11.506;2022-10-16T06:34:39;160.43;;;86.35;;
46781;SDS011;32541;46.298;11.506;2022-10-16T06:37:05;127.50;;;76.70;;
46781;SDS011;32541;46.298;11.506;2022-10-16T06:39:31;50.50;;;29.27;;
46781;SDS011;32541;46.298;11.506;2022-10-16T06:41:57;17.50;;;8.52;;
46781;SDS011;32541;46.298;11.506;2022-10-16T06:44:22;13.73;;;8.02;;
46781;SDS011;32541;46.298;11.506;2022-10-16T06:46:47;14.63;;;7.60;;
46781;SDS011;32541;46.298;11.506;2022-10-16T06:49:13;12.70;;;7.72;;
46781;SDS011;32541;46.298;11.506;2022-10-16T06:51:40;11.38;;;6.68;;
46781;SDS011;32541;46.298;11.506;2022-10-16T06:54:06;9.82;;;6.38;;
46781;SDS011;32541;46.298;11.506;2022-10-16T06:56:32;9.73;;;6.07;;
46781;SDS011;32541;46.298;11.506;2022-10-16T06:58:58;10.52;;;6.03;;
46781;SDS011;32541;46.298;11.506;2022-10-16T07:01:25;10.05;;;6.32;;
46781;SDS011;32541;46.298;11.506;2022-10-16T07:03:51;11.48;;;7.80;;
46781;SDS011;32541;46.298;11.506;2022-10-16T07:06:17;14.07;;;6.72;;
46781;SDS011;32541;46.298;11.506;2022-10-16T07:08:45;10.80;;;6.07;;
46781;SDS011;32541;46.298;11.506;2022-10-16T07:11:13;11.18;;;6.28;;
46781;SDS011;32541;46.298;11.506;2022-10-16T07:13:40;9.38;;;6.18;;
46781;SDS011;32541;46.298;11.506;2022-10-16T07:16:08;10.95;;;6.13;;
46781;SDS011;32541;46.298;11.506;2022-10-16T07:18:41;10.45;;;6.50;;
46781;SDS011;32541;46.298;11.506;2022-10-16T07:21:10;9.32;;;6.13;;
46781;SDS011;32541;46.298;11.506;2022-10-16T07:23:45;13.68;;;8.70;;
46781;SDS011;32541;46.298;11.506;2022-10-16T07:26:15;15.20;;;9.88;;
46781;SDS011;32541;46.298;11.506;2022-10-16T07:28:41;35.17;;;22.17;;
46781;SDS011;32541;46.298;11.506;2022-10-16T07:31:10;13.68;;;10.13;;
46781;SDS011;32541;46.298;11.506;2022-10-16T07:33:38;22.45;;;10.75;;
46781;SDS011;32541;46.298;11.506;2022-10-16T07:36:05;18.58;;;11.48;;
46781;SDS011;32541;46.298;11.506;2022-10-16T07:38:31;18.58;;;11.73;;
46781;SDS011;32541;46.298;11.506;2022-10-16T07:40:58;18.02;;;11.55;;
46781;SDS011;32541;46.298;11.506;2022-10-16T07:43:29;15.25;;;10.02;;
46781;SDS011;32541;46.298;11.506;2022-10-16T07:45:54;15.48;;;11.00;;
46781;SDS011;32541;46.298;11.506;2022-10-16T07:48:21;15.00;;;10.45;;
46781;SDS011;32541;46.298;11.506;2022-10-16T07:50:47;15.35;;;10.80;;
46781;SDS011;32541;46.298;11.506;2022-10-16T07:53:13;14.60;;;10.05;;
46781;SDS011;32541;46.298;11.506;2022-10-16T07:55:39;16.77;;;10.65;;
46781;SDS011;32541;46.298;11.506;2022-10-16T07:58:05;14.55;;;8.93;;
46781;SDS011;32541;46.298;11.506;2022-10-16T08:00:31;16.38;;;9.70;;
46781;SDS011;32541;46.298;11.506;2022-10-16T08:02:57;17.48;;;11.75;;
46781;SDS011;32541;46.298;11.506;2022-10-16T08:05:26;16.58;;;11.20;;
46781;SDS011;32541;46.298;11.506;2022-10-16T08:07:53;16.85;;;10.48;;
46781;SDS011;32541;46.298;11.506;2022-10-16T08:10:19;16.85;;;11.30;;
46781;SDS011;32541;46.298;11.506;2022-10-16T08:12:46;16.45;;;10.90;;
46781;SDS011;32541;46.298;11.506;2022-10-16T08:15:11;16.60;;;10.35;;
46781;SDS011;32541;46.298;11.506;2022-10-16T08:17:37;14.90;;;10.38;;
46781;SDS011;32541;46.298;11.506;2022-10-16T08:20:03;13.60;;;9.30;;
46781;SDS011;32541;46.298;11.506;2022-10-16T08:22:29;13.75;;;9.95;;
46781;SDS011;32541;46.298;11.506;2022-10-16T08:24:54;14.63;;;10.65;;
46781;SDS011;32541;46.298;11.506;2022-10-16T08:27:19;13.98;;;9.77;;
46781;SDS011;32541;46.298;11.506;2022-10-16T08:29:45;15.00;;;8.82;;
46781;SDS011;32541;46.298;11.506;2022-10-16T08:32:10;15.05;;;10.13;;
46781;SDS011;32541;46.298;11.506;2022-10-16T08:34:35;13.82;;;9.63;;
46781;SDS011;32541;46.298;11.506;2022-10-16T08:37:01;16.00;;;9.35;;
46781;SDS011;32541;46.298;11.506;2022-10-16T08:39:27;12.95;;;8.65;;
46781;SDS011;32541;46.298;11.506;2022-10-16T08:47:48;8.95;;;6.97;;
46781;SDS011;32541;46.298;11.506;2022-10-16T08:50:25;10.10;;;6.73;;
46781;SDS011;32541;46.298;11.506;2022-10-16T08:52:53;10.38;;;7.70;;
46781;SDS011;32541;46.298;11.506;2022-10-16T09:00:42;12.95;;;7.60;;
46781;SDS011;32541;46.298;11.506;2022-10-16T09:05:54;13.10;;;7.35;;
46781;SDS011;32541;46.298;11.506;2022-10-16T09:08:37;14.68;;;7.85;;
46781;SDS011;32541;46.298;11.506;2022-10-16T09:13:53;11.73;;;7.20;;
46781;SDS011;32541;46.298;11.506;2022-10-16T09:16:23;9.80;;;7.40;;
46781;SDS011;32541;46.298;11.506;2022-10-16T09:21:35;12.02;;;7.75;;
46781;SDS011;32541;46.298;11.506;2022-10-16T09:24:10;10.32;;;6.78;;
46781;SDS011;32541;46.298;11.506;2022-10-16T09:26:39;11.18;;;7.30;;
46781;SDS011;32541;46.298;11.506;2022-10-16T09:29:04;13.00;;;7.70;;
46781;SDS011;32541;46.298;11.506;2022-10-16T09:31:30;11.68;;;7.22;;
46781;SDS011;32541;46.298;11.506;2022-10-16T09:33:58;12.50;;;7.13;;
46781;SDS011;32541;46.298;11.506;2022-10-16T09:36:39;12.13;;;7.25;;
46781;SDS011;32541;46.298;11.506;2022-10-16T09:39:08;13.75;;;7.88;;
46781;SDS011;32541;46.298;11.506;2022-10-16T09:41:35;10.98;;;7.38;;
46781;SDS011;32541;46.298;11.506;2022-10-16T09:44:04;10.38;;;7.10;;
46781;SDS011;32541;46.298;11.506;2022-10-16T09:46:41;11.60;;;6.97;;
46781;SDS011;32541;46.298;11.506;2022-10-16T09:49:23;11.52;;;7.00;;
46781;SDS011;32541;46.298;11.506;2022-10-16T09:51:50;14.55;;;7.55;;
46781;SDS011;32541;46.298;11.506;2022-10-16T09:54:19;11.18;;;7.55;;
46781;SDS011;32541;46.298;11.506;2022-10-16T09:56:46;12.50;;;7.82;;
46781;SDS011;32541;46.298;11.506;2022-10-16T09:59:17;9.35;;;7.07;;
46781;SDS011;32541;46.298;11.506;2022-10-16T10:01:45;13.65;;;7.57;;
46781;SDS011;32541;46.298;11.506;2022-10-16T10:04:13;10.32;;;7.13;;
46781;SDS011;32541;46.298;11.506;2022-10-16T10:11:50;10.13;;;7.28;;
46781;SDS011;32541;46.298;11.506;2022-10-16T10:16:53;10.82;;;7.30;;
46781;SDS011;32541;46.298;11.506;2022-10-16T10:19:53;9.93;;;6.60;;
46781;SDS011;32541;46.298;11.506;2022-10-16T10:33:22;11.32;;;7.40;;
46781;SDS011;32541;46.298;11.506;2022-10-16T10:36:07;11.60;;;7.47;;
46781;SDS011;32541;46.298;11.506;2022-10-16T10:49:35;12.40;;;7.15;;
46781;SDS011;32541;46.298;11.506;2022-10-16T10:55:21;12.27;;;7.45;;
46781;SDS011;32541;46.298;11.506;2022-10-16T11:08:47;11.45;;;7.10;;
46781;SDS011;32541;46.298;11.506;2022-10-16T11:11:23;12.15;;;7.35;;
46781;SDS011;32541;46.298;11.506;2022-10-16T11:17:07;11.88;;;8.27;;
46781;SDS011;32541;46.298;11.506;2022-10-16T11:22:01;12.13;;;8.40;;
46781;SDS011;32541;46.298;11.506;2022-10-16T11:30:30;11.15;;;7.88;;
46781;SDS011;32541;46.298;11.506;2022-10-16T11:40:58;14.38;;;9.50;;
46781;SDS011;32541;46.298;11.506;2022-10-16T11:43:29;12.00;;;8.32;;
46781;SDS011;32541;46.298;11.506;2022-10-16T11:46:00;11.88;;;8.45;;
46781;SDS011;32541;46.298;11.506;2022-10-16T11:51:25;10.10;;;7.63;;
46781;SDS011;32541;46.298;11.506;2022-10-16T11:56:43;11.63;;;7.55;;
46781;SDS011;32541;46.298;11.506;2022-10-16T11:59:20;11.13;;;7.72;;
46781;SDS011;32541;46.298;11.506;2022-10-16T12:01:48;12.30;;;7.45;;
46781;SDS011;32541;46.298;11.506;2022-10-16T12:04:45;11.23;;;8.02;;
46781;SDS011;32541;46.298;11.506;2022-10-16T12:07:18;12.00;;;8.02;;
46781;SDS011;32541;46.298;11.506;2022-10-16T12:09:49;12.60;;;7.43;;
46781;SDS011;32541;46.298;11.506;2022-10-16T12:12:36;11.13;;;7.78;;
46781;SDS011;32541;46.298;11.506;2022-10-16T12:15:21;10.00;;;7.18;;
46781;SDS011;32541;46.298;11.506;2022-10-16T12:17:49;12.63;;;7.75;;
46781;SDS011;32541;46.298;11.506;2022-10-16T12:22:57;12.52;;;8.63;;
46781;SDS011;32541;46.298;11.506;2022-10-16T12:28:04;10.30;;;7.82;;
46781;SDS011;32541;46.298;11.506;2022-10-16T12:30:33;13.32;;;8.00;;
46781;SDS011;32541;46.298;11.506;2022-10-16T12:33:05;11.48;;;8.63;;
46781;SDS011;32541;46.298;11.506;2022-10-16T12:35:33;12.60;;;8.23;;
46781;SDS011;32541;46.298;11.506;2022-10-16T12:38:14;12.43;;;8.52;;
46781;SDS011;32541;46.298;11.506;2022-10-16T12:41:08;12.25;;;8.18;;
46781;SDS011;32541;46.298;11.506;2022-10-16T12:43:41;13.45;;;8.68;;
46781;SDS011;32541;46.298;11.506;2022-10-16T12:48:39;12.68;;;8.05;;
46781;SDS011;32541;46.298;11.506;2022-10-16T12:51:12;12.30;;;8.35;;
46781;SDS011;32541;46.298;11.506;2022-10-16T12:53:57;11.30;;;7.93;;
46781;SDS011;32541;46.298;11.506;2022-10-16T12:56:57;12.10;;;8.70;;
46781;SDS011;32541;46.298;11.506;2022-10-16T13:08:11;12.63;;;8.45;;
46781;SDS011;32541;46.298;11.506;2022-10-16T13:19:54;14.18;;;10.10;;
46781;SDS011;32541;46.298;11.506;2022-10-16T13:27:54;13.38;;;9.32;;
46781;SDS011;32541;46.298;11.506;2022-10-16T13:30:23;14.20;;;8.90;;
46781;SDS011;32541;46.298;11.506;2022-10-16T13:32:54;15.52;;;9.25;;
46781;SDS011;32541;46.298;11.506;2022-10-16T13:35:32;16.45;;;10.05;;
46781;SDS011;32541;46.298;11.506;2022-10-16T13:38:11;14.25;;;9.68;;
46781;SDS011;32541;46.298;11.506;2022-10-16T13:41:00;12.55;;;10.05;;
46781;SDS011;32541;46.298;11.506;2022-10-16T13:43:32;14.68;;;10.70;;
46781;SDS011;32541;46.298;11.506;2022-10-16T13:46:01;15.63;;;10.48;;
46781;SDS011;32541;46.298;11.506;2022-10-16T13:48:29;14.52;;;9.95;;
46781;SDS011;32541;46.298;11.506;2022-10-16T13:51:02;15.30;;;11.07;;
46781;SDS011;32541;46.298;11.506;2022-10-16T13:53:36;15.88;;;10.52;;
46781;SDS011;32541;46.298;11.506;2022-10-16T13:56:03;18.85;;;12.73;;
46781;SDS011;32541;46.298;11.506;2022-10-16T13:58:30;16.83;;;10.77;;
46781;SDS011;32541;46.298;11.506;2022-10-16T14:01:00;15.95;;;11.55;;
46781;SDS011;32541;46.298;11.506;2022-10-16T14:03:30;14.25;;;10.95;;
46781;SDS011;32541;46.298;11.506;2022-10-16T14:06:02;16.67;;;11.77;;
46781;SDS011;32541;46.298;11.506;2022-10-16T14:08:29;16.20;;;11.43;;
46781;SDS011;32541;46.298;11.506;2022-10-16T14:10:56;17.67;;;12.35;;
46781;SDS011;32541;46.298;11.506;2022-10-16T14:13:27;17.98;;;11.80;;
46781;SDS011;32541;46.298;11.506;2022-10-16T14:15:56;19.08;;;12.82;;
46781;SDS011;32541;46.298;11.506;2022-10-16T14:18:30;18.02;;;11.85;;
46781;SDS011;32541;46.298;11.506;2022-10-16T14:21:02;17.27;;;12.52;;
46781;SDS011;32541;46.298;11.506;2022-10-16T14:23:35;18.33;;;12.52;;
46781;SDS011;32541;46.298;11.506;2022-10-16T14:28:35;19.92;;;13.30;;
46781;SDS011;32541;46.298;11.506;2022-10-16T14:31:02;20.48;;;12.63;;
46781;SDS011;32541;46.298;11.506;2022-10-16T14:33:45;17.65;;;11.98;;
46781;SDS011;32541;46.298;11.506;2022-10-16T14:36:12;18.23;;;13.18;;
46781;SDS011;32541;46.298;11.506;2022-10-16T14:38:40;18.30;;;12.38;;
46781;SDS011;32541;46.298;11.506;2022-10-16T14:41:07;17.27;;;12.35;;
46781;SDS011;32541;46.298;11.506;2022-10-16T14:46:01;19.70;;;13.55;;
46781;SDS011;32541;46.298;11.506;2022-10-16T14:48:31;19.92;;;13.27;;
46781;SDS011;32541;46.298;11.506;2022-10-16T14:50:57;16.48;;;11.63;;
46781;SDS011;32541;46.298;11.506;2022-10-16T14:53:23;16.20;;;11.63;;
46781;SDS011;32541;46.298;11.506;2022-10-16T14:55:48;20.10;;;12.70;;
46781;SDS011;32541;46.298;11.506;2022-10-16T14:58:18;19.83;;;13.05;;
46781;SDS011;32541;46.298;11.506;2022-10-16T15:00:46;21.35;;;12.23;;
46781;SDS011;32541;46.298;11.506;2022-10-16T15:03:12;21.65;;;13.52;;
46781;SDS011;32541;46.298;11.506;2022-10-16T15:05:37;22.33;;;14.48;;
46781;SDS011;32541;46.298;11.506;2022-10-16T15:08:03;17.15;;;12.88;;
46781;SDS011;32541;46.298;11.506;2022-10-16T15:10:30;20.52;;;14.13;;
46781;SDS011;32541;46.298;11.506;2022-10-16T15:12:58;19.10;;;13.38;;
46781;SDS011;32541;46.298;11.506;2022-10-16T15:17:49;20.85;;;13.95;;
46781;SDS011;32541;46.298;11.506;2022-10-16T15:20:20;21.45;;;14.40;;
46781;SDS011;32541;46.298;11.506;2022-10-16T15:22:46;19.05;;;12.90;;
46781;SDS011;32541;46.298;11.506;2022-10-16T15:25:32;18.52;;;12.27;;
46781;SDS011;32541;46.298;11.506;2022-10-16T15:28:03;20.77;;;13.95;;
46781;SDS011;32541;46.298;11.506;2022-10-16T15:30:29;23.13;;;13.40;;
46781;SDS011;32541;46.298;11.506;2022-10-16T15:32:54;18.92;;;13.95;;
46781;SDS011;32541;46.298;11.506;2022-10-16T15:35:20;20.33;;;13.43;;
46781;SDS011;32541;46.298;11.506;2022-10-16T15:37:48;21.35;;;15.05;;
46781;SDS011;32541;46.298;11.506;2022-10-16T15:40:15;24.20;;;14.52;;
46781;SDS011;32541;46.298;11.506;2022-10-16T15:42:43;23.98;;;14.25;;
46781;SDS011;32541;46.298;11.506;2022-10-16T15:45:09;21.55;;;14.10;;
46781;SDS011;32541;46.298;11.506;2022-10-16T15:47:36;18.90;;;14.35;;
46781;SDS011;32541;46.298;11.506;2022-10-16T15:50:01;18.88;;;12.93;;
46781;SDS011;32541;46.298;11.506;2022-10-16T15:52:28;19.10;;;12.23;;
46781;SDS011;32541;46.298;11.506;2022-10-16T15:54:54;20.60;;;13.35;;
46781;SDS011;32541;46.298;11.506;2022-10-16T15:57:20;19.05;;;10.35;;
46781;SDS011;32541;46.298;11.506;2022-10-16T15:59:45;15.18;;;8.57;;
46781;SDS011;32541;46.298;11.506;2022-10-16T16:02:11;16.02;;;11.05;;
46781;SDS011;32541;46.298;11.506;2022-10-16T16:04:36;12.02;;;9.80;;
46781;SDS011;32541;46.298;11.506;2022-10-16T16:07:02;13.05;;;9.98;;
46781;SDS011;32541;46.298;11.506;2022-10-16T16:09:30;16.17;;;9.35;;
46781;SDS011;32541;46.298;11.506;2022-10-16T16:11:56;13.38;;;8.77;;
46781;SDS011;32541;46.298;11.506;2022-10-16T16:14:25;13.85;;;10.20;;
46781;SDS011;32541;46.298;11.506;2022-10-16T16:16:52;14.02;;;10.00;;
46781;SDS011;32541;46.298;11.506;2022-10-16T16:19:19;14.60;;;10.20;;
46781;SDS011;32541;46.298;11.506;2022-10-16T16:21:46;13.88;;;9.52;;
46781;SDS011;32541;46.298;11.506;2022-10-16T16:24:12;17.75;;;11.18;;
46781;SDS011;32541;46.298;11.506;2022-10-16T16:26:37;16.05;;;10.50;;
46781;SDS011;32541;46.298;11.506;2022-10-16T16:29:08;13.45;;;9.63;;
46781;SDS011;32541;46.298;11.506;2022-10-16T16:31:38;18.15;;;10.02;;
46781;SDS011;32541;46.298;11.506;2022-10-16T16:34:03;17.63;;;10.27;;
46781;SDS011;32541;46.298;11.506;2022-10-16T16:36:30;16.63;;;10.32;;
46781;SDS011;32541;46.298;11.506;2022-10-16T16:38:56;17.60;;;12.40;;
46781;SDS011;32541;46.298;11.506;2022-10-16T16:41:26;15.65;;;11.05;;
46781;SDS011;32541;46.298;11.506;2022-10-16T16:43:53;17.48;;;10.93;;
46781;SDS011;32541;46.298;11.506;2022-10-16T16:46:19;19.55;;;11.35;;
46781;SDS011;32541;46.298;11.506;2022-10-16T16:48:46;15.85;;;10.13;;